createdAt,value
2022-11-12T00:01:19.882Z,5.54
2022-11-12T00:04:05.046Z,5.56
2022-11-12T00:06:50.269Z,5.51
2022-11-12T00:09:35.215Z,5.61
2022-11-12T00:12:20.334Z,5.64
2022-11-12T00:15:08.545Z,5.62
2022-11-12T00:17:53.757Z,5.55
2022-11-12T00:20:38.901Z,5.52
2022-11-12T00:23:23.666Z,5.49
2022-11-12T00:26:08.510Z,5.50
2022-11-12T00:28:53.328Z,5.49
2022-11-12T00:31:38.220Z,5.48
2022-11-12T00:34:23.232Z,5.48
2022-11-12T00:37:08.657Z,5.44
2022-11-12T00:39:53.606Z,5.42
2022-11-12T00:42:38.477Z,5.38
2022-11-12T00:45:23.834Z,5.37
2022-11-12T00:48:08.724Z,5.33
2022-11-12T00:51:03.520Z,5.33
2022-11-12T00:53:49.410Z,5.37
2022-11-12T00:56:35.640Z,5.42
2022-11-12T00:59:20.875Z,5.41
2022-11-12T01:02:05.659Z,5.50
2022-11-12T01:04:50.830Z,5.57
2022-11-12T01:07:35.689Z,5.62
2022-11-12T01:10:20.523Z,5.66
2022-11-12T01:13:05.430Z,5.67
2022-11-12T01:15:50.327Z,5.66
2022-11-12T01:18:35.258Z,5.64
2022-11-12T01:21:21.442Z,5.62
2022-11-12T01:24:06.653Z,5.62
2022-11-12T01:26:51.782Z,5.60
2022-11-12T01:29:36.534Z,5.56
2022-11-12T01:32:21.427Z,5.53
2022-11-12T01:35:06.741Z,5.49
2022-11-12T01:37:51.482Z,5.48
2022-11-12T01:40:36.226Z,5.44
2022-11-12T01:43:21.040Z,5.40
2022-11-12T01:46:14.900Z,5.32
2022-11-12T01:49:03.210Z,5.37
2022-11-12T01:51:51.523Z,5.35
2022-11-12T01:54:37.506Z,5.36
2022-11-12T01:57:33.474Z,5.34
2022-11-12T02:00:19.931Z,5.35
2022-11-12T02:03:11.511Z,5.36
2022-11-12T02:06:05.606Z,5.35
2022-11-12T02:08:51.518Z,5.36
2022-11-12T02:11:36.275Z,5.30
2022-11-12T02:14:21.548Z,5.28
2022-11-12T02:17:06.476Z,5.28
2022-11-12T02:19:52.891Z,5.28
2022-11-12T02:22:38.051Z,5.29
2022-11-12T02:25:24.891Z,5.27
2022-11-12T02:28:10.188Z,5.37
2022-11-12T02:30:55.207Z,5.40
2022-11-12T02:33:40.083Z,5.35
2022-11-12T02:36:25.446Z,5.37
2022-11-12T02:39:10.270Z,5.42
2022-11-12T02:41:55.126Z,5.45
2022-11-12T02:44:40.052Z,5.50
2022-11-12T02:47:25.301Z,5.52
2022-11-12T02:50:10.483Z,5.53
2022-11-12T02:52:55.340Z,5.48
2022-11-12T02:55:40.298Z,5.45
2022-11-12T02:58:25.628Z,5.41
2022-11-12T03:01:11.001Z,5.35
2022-11-12T03:03:55.772Z,5.34
2022-11-12T03:06:40.674Z,5.30
2022-11-12T03:09:25.383Z,5.24
2022-11-12T03:12:10.450Z,5.20
2022-11-12T03:14:55.328Z,5.19
2022-11-12T03:17:40.088Z,5.21
2022-11-12T03:20:25.989Z,5.22
2022-11-12T03:23:11.183Z,5.21
2022-11-12T03:25:56.334Z,5.17
2022-11-12T03:28:41.487Z,5.17
2022-11-12T03:31:26.484Z,5.14
2022-11-12T03:34:11.873Z,5.15
2022-11-12T03:36:56.807Z,5.12
2022-11-12T03:39:41.595Z,5.11
2022-11-12T03:42:26.459Z,5.10
2022-11-12T03:45:11.305Z,5.07
2022-11-12T03:47:57.744Z,5.05
2022-11-12T03:50:43.090Z,5.07
2022-11-12T03:53:28.141Z,5.07
2022-11-12T03:56:13.197Z,5.13
2022-11-12T03:58:58.042Z,5.16
2022-11-12T04:01:42.861Z,5.18
2022-11-12T04:04:47.815Z,5.21
2022-11-12T04:07:51.237Z,5.27
2022-11-12T04:10:36.351Z,5.30
2022-11-12T04:13:30.565Z,5.37
2022-11-12T04:16:36.585Z,5.45
2022-11-12T04:19:44.877Z,5.49
2022-11-12T04:22:29.660Z,5.52
2022-11-12T04:25:33.505Z,5.51
2022-11-12T04:28:18.456Z,5.43
2022-11-12T04:31:03.314Z,5.41
2022-11-12T04:33:48.080Z,5.37
2022-11-12T04:36:32.966Z,5.35
2022-11-12T04:39:17.872Z,5.37
2022-11-12T04:42:21.879Z,5.40
2022-11-12T04:45:09.709Z,5.43
2022-11-12T04:47:54.780Z,5.42
2022-11-12T04:50:40.862Z,5.44
2022-11-12T04:53:26.313Z,5.42
2022-11-12T04:56:11.269Z,5.49
2022-11-12T04:58:56.170Z,5.54
2022-11-12T05:01:40.951Z,5.54
2022-11-12T05:04:28.772Z,5.57
2022-11-12T05:07:14.475Z,5.60
2022-11-12T05:09:59.603Z,5.64
2022-11-12T05:12:44.690Z,5.67
2022-11-12T05:15:29.989Z,5.67
2022-11-12T05:18:14.752Z,5.70
2022-11-12T05:21:19.499Z,5.69
2022-11-12T05:24:04.841Z,5.65
2022-11-12T05:26:50.148Z,5.61
2022-11-12T05:29:35.435Z,5.59
2022-11-12T05:32:20.475Z,5.58
2022-11-12T05:35:05.732Z,5.57
2022-11-12T05:37:50.753Z,5.54
2022-11-12T05:40:35.736Z,5.54
2022-11-12T05:43:20.580Z,5.49
2022-11-12T05:46:05.673Z,5.44
2022-11-12T05:48:50.911Z,5.45
2022-11-12T05:51:36.054Z,5.46
2022-11-12T05:54:21.257Z,5.43
2022-11-12T05:57:06.080Z,5.43
2022-11-12T05:59:50.980Z,5.36
2022-11-12T06:02:35.781Z,5.34
2022-11-12T06:05:20.671Z,5.34
2022-11-12T06:08:06.657Z,5.29
2022-11-12T06:10:53.271Z,5.31
2022-11-12T06:13:38.190Z,5.27
2022-11-12T06:16:23.248Z,5.29
2022-11-12T06:19:08.464Z,5.25
2022-11-12T06:21:53.402Z,5.18
2022-11-12T06:24:38.687Z,5.18
2022-11-12T06:27:24.111Z,5.14
2022-11-12T06:30:09.650Z,5.16
2022-11-12T06:32:54.757Z,5.18
2022-11-12T06:35:42.928Z,5.23
2022-11-12T06:38:38.735Z,5.26
2022-11-12T06:41:23.747Z,5.30
2022-11-12T06:44:08.738Z,5.36
2022-11-12T06:46:53.855Z,5.39
2022-11-12T06:49:38.643Z,5.44
2022-11-12T06:52:23.598Z,5.38
2022-11-12T06:55:11.067Z,5.34
2022-11-12T06:57:56.437Z,5.26
2022-11-12T07:00:41.493Z,5.29
2022-11-12T07:03:26.387Z,5.28
2022-11-12T07:06:14.051Z,5.33
2022-11-12T07:08:59.227Z,5.39
2022-11-12T07:11:44.284Z,5.42
2022-11-12T07:14:29.423Z,5.42
2022-11-12T07:17:14.362Z,5.46
2022-11-12T07:20:03.959Z,5.46
2022-11-12T07:22:48.982Z,5.46
2022-11-12T07:25:33.824Z,5.43
2022-11-12T07:28:18.739Z,5.40
2022-11-12T07:31:09.839Z,5.41
2022-11-12T07:33:55.011Z,5.41
2022-11-12T07:36:39.973Z,5.34
2022-11-12T07:39:24.824Z,5.35
2022-11-12T07:42:09.861Z,5.36
2022-11-12T07:44:54.485Z,5.36
2022-11-12T07:47:39.366Z,5.41
2022-11-12T07:50:24.397Z,5.47
2022-11-12T07:53:09.188Z,5.49
2022-11-12T07:55:59.368Z,5.51
2022-11-12T07:58:45.439Z,5.45
2022-11-12T08:01:31.913Z,5.49
2022-11-12T08:04:17.306Z,5.52
2022-11-12T08:07:02.254Z,5.50
2022-11-12T08:09:47.577Z,5.46
2022-11-12T08:12:32.406Z,5.44
2022-11-12T08:15:17.288Z,5.48
2022-11-12T08:18:02.155Z,5.48
2022-11-12T08:20:47.008Z,5.44
2022-11-12T08:23:32.050Z,5.47
2022-11-12T08:26:18.504Z,5.55
2022-11-12T08:29:08.274Z,5.65
2022-11-12T08:31:54.063Z,5.67
2022-11-12T08:34:41.264Z,5.79
2022-11-12T08:37:26.465Z,5.83
2022-11-12T08:40:12.361Z,5.87
2022-11-12T08:43:08.845Z,5.88
2022-11-12T08:45:54.055Z,5.93
2022-11-12T08:48:40.386Z,6.05
2022-11-12T08:51:25.614Z,6.05
2022-11-12T08:54:10.638Z,6.09
2022-11-12T08:56:55.650Z,6.16
2022-11-12T08:59:40.393Z,6.23
2022-11-12T09:02:25.267Z,6.25
2022-11-12T09:05:10.275Z,6.32
2022-11-12T09:08:03.947Z,6.42
2022-11-12T09:10:49.980Z,6.47
2022-11-12T09:13:35.536Z,6.53
2022-11-12T09:16:21.318Z,6.66
2022-11-12T09:19:06.126Z,6.67
2022-11-12T09:21:51.068Z,6.67
2022-11-12T09:24:35.966Z,6.64
2022-11-12T09:27:21.110Z,6.71
2022-11-12T09:30:06.653Z,6.78
2022-11-12T09:32:58.384Z,6.88
2022-11-12T09:35:43.341Z,6.99
2022-11-12T09:38:28.846Z,7.06
2022-11-12T09:41:29.675Z,7.20
2022-11-12T09:44:22.056Z,7.20
2022-11-12T09:47:16.414Z,7.23
2022-11-12T09:50:19.997Z,7.29
2022-11-12T09:53:15.176Z,7.30
2022-11-12T09:56:05.189Z,7.29
2022-11-12T09:58:51.202Z,7.31
2022-11-12T10:01:53.609Z,7.46
2022-11-12T10:05:17.403Z,7.59
2022-11-12T10:08:24.119Z,7.60
2022-11-12T10:11:28.049Z,7.63
2022-11-12T10:14:47.872Z,7.65
2022-11-12T10:17:46.815Z,7.75
2022-11-12T10:20:50.929Z,7.88
2022-11-12T10:23:43.666Z,7.96
2022-11-12T10:26:32.222Z,8.02
2022-11-12T10:29:31.818Z,8.13
2022-11-12T10:32:17.047Z,8.24
2022-11-12T10:35:02.061Z,8.25
2022-11-12T10:38:02.690Z,8.27
2022-11-12T10:40:47.340Z,8.28
2022-11-12T10:43:32.163Z,8.32
2022-11-12T10:46:23.630Z,8.34
2022-11-12T10:49:14.542Z,8.35
2022-11-12T10:51:59.682Z,8.39
2022-11-12T10:54:44.921Z,8.43
2022-11-12T10:57:30.186Z,8.47
2022-11-12T11:00:16.179Z,8.54
2022-11-12T11:03:06.175Z,8.56
2022-11-12T11:05:55.289Z,8.55
2022-11-12T11:08:52.056Z,8.53
2022-11-12T11:11:36.919Z,8.52
2022-11-12T11:14:21.644Z,8.50
2022-11-12T11:17:15.535Z,8.42
2022-11-12T11:20:00.765Z,8.39
2022-11-12T11:23:12.815Z,8.41
2022-11-12T11:26:07.002Z,8.40
2022-11-12T11:29:04.172Z,8.36
2022-11-12T11:32:01.639Z,8.30
2022-11-12T11:35:05.036Z,8.27
2022-11-12T11:38:05.446Z,8.26
2022-11-12T11:41:30.282Z,8.22
2022-11-12T11:44:47.379Z,8.18
2022-11-12T11:48:02.694Z,8.14
2022-11-12T11:51:00.109Z,8.18
2022-11-12T11:54:18.999Z,8.22
2022-11-12T11:57:12.018Z,8.30
2022-11-12T12:00:29.798Z,8.35
2022-11-12T12:03:31.724Z,8.35
2022-11-12T12:06:26.218Z,8.32
2022-11-12T12:09:33.335Z,8.35
2022-11-12T12:12:18.097Z,8.32
2022-11-12T12:15:45.814Z,8.40
2022-11-12T12:18:46.438Z,8.52
2022-11-12T12:21:35.275Z,8.57
2022-11-12T12:24:37.328Z,8.60
2022-11-12T12:27:29.192Z,8.58
2022-11-12T12:30:19.827Z,8.61
2022-11-12T12:33:25.196Z,8.66
2022-11-12T12:36:17.739Z,8.68
2022-11-12T12:39:25.847Z,8.63
2022-11-12T12:42:50.810Z,8.56
2022-11-12T12:45:44.091Z,8.56
2022-11-12T12:48:34.399Z,8.54
2022-11-12T12:51:20.529Z,8.53
2022-11-12T12:54:34.516Z,8.52
2022-11-12T12:57:39.971Z,8.52
2022-11-12T13:00:38.957Z,8.58
2022-11-12T13:03:42.793Z,8.71
2022-11-12T13:06:40.934Z,8.80
2022-11-12T13:09:28.417Z,8.86
2022-11-12T13:12:16.609Z,8.87
2022-11-12T13:15:16.050Z,8.91
2022-11-12T13:18:00.991Z,8.93
2022-11-12T13:21:16.195Z,8.94
2022-11-12T13:24:08.248Z,8.94
2022-11-12T13:26:59.949Z,8.93
2022-11-12T13:29:46.852Z,8.94
2022-11-12T13:32:41.785Z,8.87
2022-11-12T13:35:29.828Z,8.82
2022-11-12T13:38:17.626Z,8.85
2022-11-12T13:41:17.929Z,8.87
2022-11-12T13:44:07.750Z,8.84
2022-11-12T13:46:55.661Z,8.81
2022-11-12T13:49:42.660Z,8.76
2022-11-12T13:52:28.870Z,8.70
2022-11-12T13:55:16.959Z,8.61
2022-11-12T13:58:02.015Z,8.57
2022-11-12T14:00:59.560Z,8.56
2022-11-12T14:03:48.213Z,8.50
2022-11-12T14:06:42.591Z,8.46
2022-11-12T14:09:39.872Z,8.41
2022-11-12T14:12:24.664Z,8.40
2022-11-12T14:15:30.803Z,8.38
2022-11-12T14:18:31.897Z,8.33
2022-11-12T14:21:18.396Z,8.32
2022-11-12T14:24:04.828Z,8.30
2022-11-12T14:26:49.872Z,8.26
2022-11-12T14:29:37.824Z,8.23
2022-11-12T14:32:24.967Z,8.24
2022-11-12T14:35:28.310Z,8.27
2022-11-12T14:38:21.624Z,8.26
2022-11-12T14:41:10.903Z,8.25
2022-11-12T14:44:12.160Z,8.21
2022-11-12T14:46:58.898Z,8.14
2022-11-12T14:49:47.778Z,8.11
2022-11-12T14:52:40.028Z,8.06
2022-11-12T14:55:28.735Z,8.00
2022-11-12T14:58:15.434Z,7.93
2022-11-12T15:01:47.724Z,7.88
2022-11-12T15:04:25.804Z,7.83
2022-11-12T15:07:51.909Z,7.77
2022-11-12T15:10:42.050Z,7.65
2022-11-12T15:13:27.613Z,7.63
2022-11-12T15:16:20.998Z,7.56
2022-11-12T15:19:26.189Z,7.50
2022-11-12T15:22:22.796Z,7.44
2022-11-12T15:25:29.624Z,7.40
2022-11-12T15:28:22.658Z,7.35
2022-11-12T15:31:17.412Z,7.33
2022-11-12T15:34:33.611Z,7.29
2022-11-12T15:37:18.735Z,7.23
2022-11-12T15:40:11.351Z,7.18
2022-11-12T15:42:57.870Z,7.14
2022-11-12T15:45:43.100Z,7.07
2022-11-12T15:48:28.014Z,7.05
2022-11-12T15:51:16.036Z,7.00
2022-11-12T15:54:00.919Z,6.97
2022-11-12T15:56:46.380Z,7.00
2022-11-12T15:59:31.261Z,7.01
2022-11-12T16:02:16.205Z,7.03
2022-11-12T16:05:01.516Z,6.99
2022-11-12T16:07:46.335Z,6.96
2022-11-12T16:10:31.604Z,6.92
2022-11-12T16:13:30.969Z,6.88
2022-11-12T16:16:16.256Z,6.85
2022-11-12T16:19:01.624Z,6.86
2022-11-12T16:21:46.707Z,6.82
2022-11-12T16:24:31.834Z,6.88
2022-11-12T16:27:17.981Z,6.90
2022-11-12T16:30:03.722Z,6.87
2022-11-12T16:32:49.005Z,6.89
2022-11-12T16:35:35.635Z,6.82
2022-11-12T16:38:21.422Z,6.78
2022-11-12T16:41:10.501Z,6.74
2022-11-12T16:43:55.266Z,6.71
2022-11-12T16:46:40.338Z,6.70
2022-11-12T16:49:26.156Z,6.64
2022-11-12T16:52:11.690Z,6.60
2022-11-12T16:55:01.506Z,6.56
2022-11-12T16:57:49.405Z,6.51
2022-11-12T17:00:35.153Z,6.50
2022-11-12T17:03:20.054Z,6.54
2022-11-12T17:06:04.913Z,6.58
2022-11-12T17:08:54.330Z,6.61
2022-11-12T17:11:39.567Z,6.56
2022-11-12T17:14:28.292Z,6.53
2022-11-12T17:17:13.779Z,6.49
2022-11-12T17:19:59.393Z,6.52
2022-11-12T17:22:44.105Z,6.52
2022-11-12T17:25:28.795Z,6.51
2022-11-12T17:28:13.603Z,6.46
2022-11-12T17:31:10.931Z,6.38
2022-11-12T17:33:55.929Z,6.31
2022-11-12T17:36:43.531Z,6.28
2022-11-12T17:39:29.229Z,6.23
2022-11-12T17:42:14.061Z,6.20
2022-11-12T17:44:58.978Z,6.20
2022-11-12T17:47:43.791Z,6.15
2022-11-12T17:50:28.588Z,6.09
2022-11-12T17:53:14.068Z,6.04
2022-11-12T17:55:59.920Z,6.05
2022-11-12T17:58:47.081Z,6.02
2022-11-12T18:01:32.973Z,6.00
2022-11-12T18:04:17.680Z,5.97
2022-11-12T18:07:02.523Z,6.01
2022-11-12T18:09:47.278Z,6.02
2022-11-12T18:12:32.054Z,6.01
2022-11-12T18:15:17.030Z,6.03
2022-11-12T18:18:03.096Z,5.94
2022-11-12T18:20:48.510Z,5.89
2022-11-12T18:23:36.930Z,5.87
2022-11-12T18:26:22.118Z,5.83
2022-11-12T18:29:07.597Z,5.83
2022-11-12T18:31:52.865Z,5.82
2022-11-12T18:34:41.737Z,5.86
2022-11-12T18:37:26.585Z,5.86
2022-11-12T18:40:11.850Z,5.87
2022-11-12T18:42:57.044Z,5.84
2022-11-12T18:45:42.153Z,5.87
2022-11-12T18:48:28.463Z,5.90
2022-11-12T18:51:15.484Z,5.89
2022-11-12T18:54:00.722Z,5.85
2022-11-12T18:56:45.561Z,5.87
2022-11-12T18:59:32.452Z,5.85
2022-11-12T19:02:17.442Z,5.87
2022-11-12T19:05:02.490Z,5.89
2022-11-12T19:07:47.580Z,5.91
2022-11-12T19:10:32.325Z,5.88
2022-11-12T19:13:17.258Z,5.90
2022-11-12T19:16:07.458Z,5.88
2022-11-12T19:18:52.457Z,5.88
2022-11-12T19:21:38.250Z,5.82
2022-11-12T19:24:23.330Z,5.79
2022-11-12T19:27:08.216Z,5.77
2022-11-12T19:29:56.265Z,5.70
2022-11-12T19:32:44.988Z,5.64
2022-11-12T19:35:29.906Z,5.56
2022-11-12T19:38:15.406Z,5.51
2022-11-12T19:41:05.306Z,5.42
2022-11-12T19:43:51.069Z,5.35
2022-11-12T19:46:36.652Z,5.29
2022-11-12T19:49:21.463Z,5.23
2022-11-12T19:52:06.246Z,5.15
2022-11-12T19:54:51.182Z,5.15
2022-11-12T19:57:36.016Z,5.13
2022-11-12T20:00:21.047Z,5.11
2022-11-12T20:03:05.985Z,5.05
2022-11-12T20:05:54.452Z,4.98
2022-11-12T20:08:39.990Z,4.98
2022-11-12T20:11:24.777Z,4.96
2022-11-12T20:14:09.661Z,4.94
2022-11-12T20:16:54.408Z,4.89
2022-11-12T20:19:39.229Z,4.82
2022-11-12T20:22:29.203Z,4.84
2022-11-12T20:25:16.688Z,4.86
2022-11-12T20:28:01.789Z,4.86
2022-11-12T20:30:46.638Z,4.87
2022-11-12T20:33:31.515Z,4.86
2022-11-12T20:36:20.344Z,4.84
2022-11-12T20:39:05.348Z,4.86
2022-11-12T20:41:50.448Z,4.83
2022-11-12T20:44:35.239Z,4.82
2022-11-12T20:47:20.079Z,4.85
2022-11-12T20:50:05.675Z,4.83
2022-11-12T20:52:50.935Z,4.84
2022-11-12T20:55:36.060Z,4.82
2022-11-12T20:58:20.804Z,4.82
2022-11-12T21:01:07.990Z,4.82
2022-11-12T21:03:53.262Z,4.90
2022-11-12T21:06:38.911Z,4.92
2022-11-12T21:09:23.842Z,4.95
2022-11-12T21:12:08.694Z,4.97
2022-11-12T21:14:53.511Z,4.95
2022-11-12T21:17:38.387Z,4.95
2022-11-12T21:20:23.277Z,4.99
2022-11-12T21:23:07.921Z,5.04
2022-11-12T21:25:52.651Z,5.06
2022-11-12T21:28:38.349Z,5.11
2022-11-12T21:31:26.135Z,5.10
2022-11-12T21:34:11.128Z,5.14
2022-11-12T21:36:56.187Z,5.17
2022-11-12T21:39:41.075Z,5.20
2022-11-12T21:42:26.015Z,5.20
2022-11-12T21:45:11.977Z,5.20
2022-11-12T21:47:56.888Z,5.16
2022-11-12T21:50:41.595Z,5.14
2022-11-12T21:53:26.514Z,5.10
2022-11-12T21:56:17.060Z,5.11
2022-11-12T21:59:03.918Z,5.18
2022-11-12T22:01:49.156Z,5.18
2022-11-12T22:04:34.092Z,5.11
2022-11-12T22:07:19.029Z,5.15
2022-11-12T22:10:04.263Z,5.20
2022-11-12T22:13:05.317Z,5.26
2022-11-12T22:15:53.937Z,5.27
2022-11-12T22:18:39.215Z,5.29
2022-11-12T22:21:29.600Z,5.32
2022-11-12T22:24:17.259Z,5.32
2022-11-12T22:27:05.469Z,5.29
2022-11-12T22:29:51.780Z,5.26
2022-11-12T22:32:36.924Z,5.24
2022-11-12T22:35:21.764Z,5.23
2022-11-12T22:38:06.584Z,5.23
2022-11-12T22:40:51.351Z,5.21
2022-11-12T22:43:37.828Z,5.18
2022-11-12T22:46:28.712Z,5.12
2022-11-12T22:49:13.842Z,5.10
2022-11-12T22:51:58.720Z,5.00
2022-11-12T22:54:43.587Z,4.90
2022-11-12T22:57:28.455Z,4.85
2022-11-12T23:00:13.903Z,4.82
2022-11-12T23:02:59.298Z,4.73
2022-11-12T23:05:44.538Z,4.66
2022-11-12T23:08:30.848Z,4.61
2022-11-12T23:11:19.349Z,4.53
2022-11-12T23:14:04.513Z,4.51
2022-11-12T23:16:49.590Z,4.50
2022-11-12T23:19:34.830Z,4.49
2022-11-12T23:22:19.630Z,4.50
2022-11-12T23:25:05.100Z,4.52
2022-11-12T23:27:49.899Z,4.59
2022-11-12T23:30:36.769Z,4.63
2022-11-12T23:33:21.595Z,4.67
2022-11-12T23:36:10.891Z,4.66
2022-11-12T23:38:56.783Z,4.74
2022-11-12T23:41:41.631Z,4.72
2022-11-12T23:44:26.453Z,4.69
2022-11-12T23:47:11.359Z,4.70
2022-11-12T23:49:55.966Z,4.64
2022-11-12T23:52:40.883Z,4.72
2022-11-12T23:55:29.057Z,4.71
2022-11-12T23:58:15.457Z,4.72
